Bethalto, Illinois
Current Conditions -  °F | °C
As of 4:50 PM on Friday 31 Oct 2014 (Local Time) from KALN Reporting Station
Scattered Clouds Scattered Clouds  
Wind Chill: 38°   Ceiling: Unl
Heat Index: 45°   Visibility: 10mi
Dew Point: 12°   Wind: 13mph
Humidity: 27%   Direction: 320°NW
Pressure: 30.3"   Gusts: 25mph
Location:  38.91°N, 90.04°W
Report Text: KALN 312150Z 32011G22KT 10SM SCT060 07/M11 A3030
Loading
Personal Weather Stations






























Interactive Weather Map
Tropical Storm Tracking
New forecast layout! Learn more

10-Day Weather Forecast

Advertisements
Track Severe Weather on mobile